createdAt,value
2022-09-11T00:01:33.308Z,11.57
2022-09-11T00:04:00.367Z,12.40
2022-09-11T00:06:30.151Z,12.70
2022-09-11T00:09:04.381Z,12.73
2022-09-11T00:11:35.131Z,13.03
2022-09-11T00:14:02.165Z,12.80
2022-09-11T00:16:35.520Z,12.90
2022-09-11T00:19:08.768Z,12.53
2022-09-11T00:21:36.454Z,13.57
2022-09-11T00:24:03.925Z,12.17
2022-09-11T00:26:31.362Z,13.10
2022-09-11T00:28:58.500Z,12.77
2022-09-11T00:31:28.186Z,12.73
2022-09-11T00:33:55.673Z,13.77
2022-09-11T00:36:25.897Z,13.60
2022-09-11T00:38:54.098Z,12.97
2022-09-11T00:41:32.533Z,13.43
2022-09-11T00:44:07.383Z,12.07
2022-09-11T00:46:38.202Z,12.63
2022-09-11T00:49:24.796Z,12.63
2022-09-11T00:51:56.152Z,13.03
2022-09-11T00:54:41.322Z,13.37
2022-09-11T00:57:09.638Z,13.07
2022-09-11T00:59:41.338Z,12.70
2022-09-11T01:02:13.638Z,14.33
2022-09-11T01:04:40.636Z,12.90
2022-09-11T01:07:07.332Z,12.73
2022-09-11T01:09:34.348Z,13.47
2022-09-11T01:12:14.801Z,14.27
2022-09-11T01:14:48.005Z,12.53
2022-09-11T01:17:32.305Z,11.93
2022-09-11T01:20:36.555Z,11.40
2022-09-11T01:23:22.785Z,11.17
2022-09-11T01:26:32.348Z,11.93
2022-09-11T01:29:22.436Z,12.83
2022-09-11T01:32:04.577Z,13.27
2022-09-11T01:34:38.961Z,14.17
2022-09-11T01:37:12.592Z,15.23
2022-09-11T01:39:44.933Z,15.03
2022-09-11T01:42:19.269Z,13.23
2022-09-11T01:44:55.779Z,12.87
2022-09-11T01:47:24.990Z,12.80
2022-09-11T01:50:03.585Z,13.90
2022-09-11T01:52:36.902Z,13.70
2022-09-11T01:55:12.586Z,11.93
2022-09-11T01:57:46.462Z,12.43
2022-09-11T02:00:14.863Z,13.17
2022-09-11T02:03:03.792Z,11.83
2022-09-11T02:05:38.498Z,11.03
2022-09-11T02:08:11.370Z,11.63
2022-09-11T02:10:47.019Z,15.03
2022-09-11T02:13:29.709Z,15.20
2022-09-11T02:16:05.471Z,14.70
2022-09-11T02:18:53.776Z,14.33
2022-09-11T02:21:22.053Z,14.87
2022-09-11T02:23:49.516Z,13.13
2022-09-11T02:26:18.723Z,13.50
2022-09-11T02:28:45.508Z,11.93
2022-09-11T02:31:13.167Z,13.33
2022-09-11T02:33:39.848Z,13.03
2022-09-11T02:36:35.653Z,14.23
2022-09-11T02:39:20.462Z,12.20
2022-09-11T02:42:03.287Z,14.03
2022-09-11T02:44:32.756Z,13.53
2022-09-11T02:47:15.412Z,14.13
2022-09-11T02:50:01.073Z,13.13
2022-09-11T02:53:16.482Z,12.73
2022-09-11T02:56:00.849Z,12.03
2022-09-11T02:58:42.740Z,12.43
2022-09-11T03:01:10.418Z,13.60
2022-09-11T03:03:41.141Z,11.90
2022-09-11T03:06:13.766Z,11.70
2022-09-11T03:08:41.071Z,13.43
2022-09-11T03:11:11.512Z,11.47
2022-09-11T03:13:38.410Z,13.73
2022-09-11T03:16:05.799Z,15.70
2022-09-11T03:18:33.070Z,13.77
2022-09-11T03:21:01.071Z,12.20
2022-09-11T03:23:28.093Z,14.03
2022-09-11T03:25:55.487Z,12.73
2022-09-11T03:28:23.382Z,13.33
2022-09-11T03:30:52.805Z,13.70
2022-09-11T03:33:19.769Z,12.67
2022-09-11T03:35:47.144Z,13.83
2022-09-11T03:38:15.846Z,14.43
2022-09-11T03:40:43.844Z,14.90
2022-09-11T03:43:12.279Z,18.03
2022-09-11T03:45:39.541Z,15.87
2022-09-11T03:48:08.423Z,15.30
2022-09-11T03:50:35.430Z,14.27
2022-09-11T03:53:02.071Z,13.97
2022-09-11T03:55:29.088Z,14.13
2022-09-11T03:57:55.725Z,12.87
2022-09-11T04:00:25.057Z,13.40
2022-09-11T04:02:58.191Z,14.37
2022-09-11T04:05:44.099Z,13.83
2022-09-11T04:08:13.327Z,14.10
2022-09-11T04:10:43.230Z,14.17
2022-09-11T04:13:10.922Z,13.13
2022-09-11T04:15:37.994Z,14.77
2022-09-11T04:18:08.486Z,13.43
2022-09-11T04:20:39.694Z,13.20
2022-09-11T04:23:06.470Z,13.40
2022-09-11T04:25:33.413Z,13.97
2022-09-11T04:28:02.680Z,13.17
2022-09-11T04:30:29.464Z,12.70
2022-09-11T04:32:56.338Z,13.87
2022-09-11T04:35:24.066Z,13.37
2022-09-11T04:37:55.557Z,13.40
2022-09-11T04:40:23.134Z,15.67
2022-09-11T04:42:49.781Z,15.93
2022-09-11T04:45:16.810Z,16.23
2022-09-11T04:47:44.320Z,14.60
2022-09-11T04:50:12.971Z,14.93
2022-09-11T04:52:40.925Z,13.23
2022-09-11T04:55:08.948Z,15.67
2022-09-11T04:57:35.610Z,15.70
2022-09-11T05:00:03.934Z,15.07
2022-09-11T05:02:30.611Z,16.37
2022-09-11T05:04:58.755Z,15.83
2022-09-11T05:07:25.933Z,16.00
2022-09-11T05:09:54.885Z,16.03
2022-09-11T05:12:22.568Z,16.07
2022-09-11T05:14:49.470Z,14.67
2022-09-11T05:17:16.909Z,15.77
2022-09-11T05:19:44.238Z,15.87
2022-09-11T05:22:11.194Z,14.23
2022-09-11T05:24:43.258Z,15.57
2022-09-11T05:27:10.249Z,13.77
2022-09-11T05:29:39.082Z,15.80
2022-09-11T05:32:12.113Z,14.57
2022-09-11T05:34:38.917Z,14.87
2022-09-11T05:37:08.041Z,14.03
2022-09-11T05:39:40.648Z,15.20
2022-09-11T05:42:08.836Z,14.30
2022-09-11T05:44:38.896Z,12.97
2022-09-11T05:47:06.365Z,12.93
2022-09-11T05:49:33.090Z,14.03
2022-09-11T05:52:01.590Z,14.00
2022-09-11T05:54:29.964Z,14.50
2022-09-11T05:56:59.106Z,14.03
2022-09-11T05:59:27.059Z,13.40
2022-09-11T06:01:54.170Z,13.57
2022-09-11T06:04:32.432Z,13.43
2022-09-11T06:06:59.898Z,14.73
2022-09-11T06:09:28.616Z,14.87
2022-09-11T06:11:55.402Z,14.73
2022-09-11T06:14:22.250Z,15.23
2022-09-11T06:16:50.552Z,14.07
2022-09-11T06:19:17.861Z,15.03
2022-09-11T06:21:45.904Z,16.27
2022-09-11T06:24:25.147Z,16.60
2022-09-11T06:26:51.911Z,15.63
2022-09-11T06:29:19.719Z,17.13
2022-09-11T06:31:51.465Z,20.37
2022-09-11T06:34:21.997Z,19.70
2022-09-11T06:36:52.103Z,20.47
2022-09-11T06:39:20.521Z,21.13
2022-09-11T06:41:47.438Z,22.23
2022-09-11T06:44:15.335Z,22.30
2022-09-11T06:46:42.189Z,24.20
2022-09-11T06:49:10.761Z,22.00
2022-09-11T06:51:57.351Z,20.63
2022-09-11T06:54:25.184Z,22.97
2022-09-11T06:56:53.014Z,25.87
2022-09-11T06:59:23.810Z,25.10
2022-09-11T07:01:51.709Z,25.20
2022-09-11T07:04:18.677Z,24.10
2022-09-11T07:06:48.153Z,23.73
2022-09-11T07:09:15.879Z,22.07
2022-09-11T07:11:48.436Z,21.93
2022-09-11T07:14:21.201Z,22.30
2022-09-11T07:16:54.955Z,22.70
2022-09-11T07:19:25.442Z,22.97
2022-09-11T07:21:52.222Z,21.67
2022-09-11T07:24:20.549Z,22.73
2022-09-11T07:26:47.805Z,20.97
2022-09-11T07:29:20.731Z,20.53
2022-09-11T07:31:48.114Z,20.00
2022-09-11T07:34:16.005Z,19.63
2022-09-11T07:36:44.561Z,19.23
2022-09-11T07:39:12.133Z,17.53
2022-09-11T07:41:48.905Z,18.23
2022-09-11T07:44:23.790Z,18.57
2022-09-11T07:46:51.247Z,18.97
2022-09-11T07:49:18.365Z,18.13
2022-09-11T07:51:46.014Z,18.00
2022-09-11T07:54:15.977Z,18.90
2022-09-11T07:56:43.546Z,18.07
2022-09-11T07:59:11.718Z,17.67
2022-09-11T08:01:43.030Z,18.97
2022-09-11T08:04:14.227Z,18.70
2022-09-11T08:06:42.054Z,16.17
2022-09-11T08:09:15.937Z,16.20
2022-09-11T08:11:48.991Z,17.47
2022-09-11T08:14:17.918Z,17.57
2022-09-11T08:16:48.182Z,18.83
2022-09-11T08:19:18.545Z,17.83
2022-09-11T08:21:49.158Z,17.23
2022-09-11T08:24:20.473Z,18.03
2022-09-11T08:26:50.605Z,18.13
2022-09-11T08:29:18.645Z,18.27
2022-09-11T08:31:46.894Z,17.47
2022-09-11T08:34:14.176Z,18.75
2022-09-11T08:36:40.972Z,17.25
2022-09-11T08:39:09.716Z,17.05
2022-09-11T08:41:48.230Z,15.70
2022-09-11T08:44:29.220Z,15.98
2022-09-11T08:47:19.171Z,13.80
2022-09-11T08:50:02.678Z,13.18
2022-09-11T08:52:33.018Z,15.73
2022-09-11T08:55:00.761Z,13.43
2022-09-11T08:57:52.613Z,13.57
2022-09-11T09:00:26.986Z,13.63
2022-09-11T09:03:22.577Z,12.85
2022-09-11T09:06:14.024Z,13.40
2022-09-11T09:09:09.001Z,13.77
2022-09-11T09:11:46.268Z,12.60
2022-09-11T09:14:43.326Z,12.75
2022-09-11T09:17:19.515Z,12.13
2022-09-11T09:20:05.841Z,12.85
2022-09-11T09:22:45.244Z,11.90
2022-09-11T09:25:17.782Z,12.32
2022-09-11T09:28:03.690Z,12.20
2022-09-11T09:30:42.586Z,12.98
2022-09-11T09:33:18.381Z,13.15
2022-09-11T09:35:45.501Z,12.55
2022-09-11T09:38:26.868Z,12.82
2022-09-11T09:41:21.298Z,12.75
2022-09-11T09:44:17.717Z,11.75
2022-09-11T09:46:51.218Z,10.75
2022-09-11T09:49:24.679Z,12.25
2022-09-11T09:51:54.404Z,12.15
2022-09-11T09:54:24.113Z,12.75
2022-09-11T09:57:02.587Z,12.27
2022-09-11T09:59:47.552Z,12.80
2022-09-11T10:02:40.548Z,11.88
2022-09-11T10:05:18.143Z,12.48
2022-09-11T10:07:57.369Z,11.98
2022-09-11T10:10:34.800Z,12.73
2022-09-11T10:13:19.389Z,12.88
2022-09-11T10:15:50.015Z,12.55
2022-09-11T10:18:29.133Z,12.73
2022-09-11T10:21:24.131Z,11.75
2022-09-11T10:24:02.361Z,13.65
2022-09-11T10:26:34.985Z,13.70
2022-09-11T10:29:12.069Z,13.65
2022-09-11T10:31:41.160Z,14.23
2022-09-11T10:34:16.140Z,13.98
2022-09-11T10:37:08.971Z,13.70
2022-09-11T10:39:36.905Z,13.98
2022-09-11T10:42:29.562Z,12.77
2022-09-11T10:45:10.324Z,12.93
2022-09-11T10:47:37.446Z,13.85
2022-09-11T10:50:16.905Z,12.45
2022-09-11T10:53:11.299Z,11.95
2022-09-11T10:55:42.445Z,10.98
2022-09-11T10:58:18.450Z,10.95
2022-09-11T11:00:45.325Z,9.75
2022-09-11T11:03:17.755Z,10.63
2022-09-11T11:05:59.528Z,11.35
2022-09-11T11:08:46.316Z,11.35
2022-09-11T11:11:40.452Z,10.75
2022-09-11T11:14:37.793Z,10.63
2022-09-11T11:17:19.779Z,12.63
2022-09-11T11:20:10.794Z,12.65
2022-09-11T11:22:49.717Z,10.77
2022-09-11T11:25:24.173Z,11.48
2022-09-11T11:28:11.773Z,11.15
2022-09-11T11:31:04.443Z,10.93
2022-09-11T11:34:16.929Z,9.88
2022-09-11T11:36:55.960Z,10.48
2022-09-11T11:39:25.272Z,10.85
2022-09-11T11:42:14.580Z,10.68
2022-09-11T11:44:48.560Z,10.93
2022-09-11T11:47:17.947Z,11.95
2022-09-11T11:49:55.016Z,11.40
2022-09-11T11:52:40.934Z,12.50
2022-09-11T11:55:26.362Z,13.05
2022-09-11T11:58:05.795Z,12.95
2022-09-11T12:00:41.953Z,11.90
2022-09-11T12:03:38.613Z,12.85
2022-09-11T12:06:08.043Z,13.38
2022-09-11T12:08:43.963Z,13.63
2022-09-11T12:11:13.979Z,12.80
2022-09-11T12:13:47.520Z,12.50
2022-09-11T12:16:21.074Z,13.75
2022-09-11T12:19:14.997Z,13.13
2022-09-11T12:22:02.537Z,11.82
2022-09-11T12:24:50.402Z,12.10
2022-09-11T12:27:34.840Z,10.30
2022-09-11T12:30:16.833Z,10.45
2022-09-11T12:32:51.619Z,12.52
2022-09-11T12:35:39.689Z,11.63
2022-09-11T12:38:06.553Z,10.38
2022-09-11T12:40:49.908Z,11.13
2022-09-11T12:43:46.274Z,11.18
2022-09-11T12:46:22.164Z,9.90
2022-09-11T12:49:17.817Z,9.90
2022-09-11T12:51:49.826Z,9.35
2022-09-11T12:54:26.949Z,9.25
2022-09-11T12:57:02.082Z,9.30
2022-09-11T12:59:38.829Z,10.18
2022-09-11T13:02:37.914Z,10.70
2022-09-11T13:05:16.175Z,10.02
2022-09-11T13:07:46.941Z,9.45
2022-09-11T13:10:35.323Z,9.40
2022-09-11T13:13:37.455Z,9.90
2022-09-11T13:16:26.239Z,9.30
2022-09-11T13:19:13.487Z,9.43
2022-09-11T13:21:41.843Z,9.77
2022-09-11T13:24:26.285Z,9.88
2022-09-11T13:27:02.152Z,10.10
2022-09-11T13:29:31.444Z,9.88
2022-09-11T13:32:00.577Z,10.25
2022-09-11T13:34:29.462Z,9.50
2022-09-11T13:36:57.756Z,10.18
2022-09-11T13:39:26.612Z,9.75
2022-09-11T13:42:05.013Z,8.82
2022-09-11T13:44:44.097Z,9.55
2022-09-11T13:47:22.656Z,9.18
2022-09-11T13:49:53.596Z,10.18
2022-09-11T13:52:22.811Z,8.93
2022-09-11T13:54:52.514Z,10.07
2022-09-11T13:57:31.376Z,9.65
2022-09-11T14:00:00.211Z,9.68
2022-09-11T14:02:40.695Z,10.27
2022-09-11T14:05:12.481Z,8.52
2022-09-11T14:07:47.478Z,9.00
2022-09-11T14:10:35.024Z,8.25
2022-09-11T14:13:20.566Z,8.45
2022-09-11T14:15:47.488Z,6.82
2022-09-11T14:18:40.725Z,8.63
2022-09-11T14:21:22.764Z,7.30
2022-09-11T14:23:55.026Z,7.68
2022-09-11T14:26:24.519Z,7.63
2022-09-11T14:29:06.840Z,7.18
2022-09-11T14:31:36.990Z,7.40
2022-09-11T14:34:11.375Z,7.95
2022-09-11T14:36:44.259Z,8.25
2022-09-11T14:39:40.375Z,7.25
2022-09-11T14:42:10.272Z,8.10
2022-09-11T14:44:39.320Z,8.90
2022-09-11T14:47:06.218Z,8.55
2022-09-11T14:49:33.064Z,8.20
2022-09-11T14:52:00.621Z,8.57
2022-09-11T14:54:31.208Z,9.20
2022-09-11T14:57:00.792Z,8.27
2022-09-11T14:59:29.191Z,7.78
2022-09-11T15:01:58.495Z,7.75
2022-09-11T15:04:25.341Z,7.75
2022-09-11T15:06:55.324Z,7.40
2022-09-11T15:09:23.779Z,8.05
2022-09-11T15:11:52.150Z,7.90
2022-09-11T15:14:38.065Z,7.38
2022-09-11T15:17:09.384Z,7.47
2022-09-11T15:19:37.714Z,7.82
2022-09-11T15:22:06.041Z,7.25
2022-09-11T15:24:32.969Z,7.90
2022-09-11T15:26:59.844Z,7.13
2022-09-11T15:29:31.194Z,7.22
2022-09-11T15:32:00.970Z,7.45
2022-09-11T15:34:31.710Z,7.30
2022-09-11T15:36:58.474Z,6.82
2022-09-11T15:39:25.702Z,6.95
2022-09-11T15:41:54.370Z,6.35
2022-09-11T15:44:24.133Z,7.03
2022-09-11T15:46:52.725Z,6.72
2022-09-11T15:49:21.730Z,6.85
2022-09-11T15:51:49.410Z,6.30
2022-09-11T15:54:16.211Z,6.88
2022-09-11T15:56:43.776Z,6.57
2022-09-11T15:59:12.337Z,6.10
2022-09-11T16:01:39.404Z,6.35
2022-09-11T16:04:12.674Z,6.53
2022-09-11T16:06:41.716Z,6.35
2022-09-11T16:09:13.338Z,6.72
2022-09-11T16:11:40.832Z,6.60
2022-09-11T16:14:08.262Z,7.10
2022-09-11T16:16:35.320Z,6.75
2022-09-11T16:19:01.938Z,6.88
2022-09-11T16:21:28.913Z,6.88
2022-09-11T16:24:00.759Z,7.07
2022-09-11T16:26:31.685Z,6.78
2022-09-11T16:28:58.818Z,6.82
2022-09-11T16:31:26.036Z,7.10
2022-09-11T16:33:55.063Z,6.90
2022-09-11T16:36:22.508Z,6.82
2022-09-11T16:38:50.489Z,6.70
2022-09-11T16:41:19.994Z,6.25
2022-09-11T16:43:49.082Z,6.97
2022-09-11T16:46:22.200Z,6.30
2022-09-11T16:48:54.004Z,6.22
2022-09-11T16:51:23.470Z,6.20
2022-09-11T16:53:50.398Z,6.28
2022-09-11T16:56:20.493Z,6.32
2022-09-11T16:58:47.838Z,5.95
2022-09-11T17:01:20.223Z,7.20
2022-09-11T17:03:49.611Z,5.63
2022-09-11T17:06:19.333Z,6.97
2022-09-11T17:08:46.236Z,6.20
2022-09-11T17:11:14.902Z,6.55
2022-09-11T17:13:46.096Z,5.93
2022-09-11T17:16:16.749Z,5.63
2022-09-11T17:18:53.316Z,5.30
2022-09-11T17:21:24.106Z,5.10
2022-09-11T17:23:52.686Z,5.47
2022-09-11T17:26:19.822Z,4.75
2022-09-11T17:28:47.833Z,6.03
2022-09-11T17:31:16.827Z,5.47
2022-09-11T17:33:45.310Z,4.83
2022-09-11T17:36:13.996Z,5.13
2022-09-11T17:38:41.363Z,5.00
2022-09-11T17:41:08.919Z,5.40
2022-09-11T17:43:37.416Z,5.63
2022-09-11T17:46:07.018Z,5.50
2022-09-11T17:48:35.038Z,6.03
2022-09-11T17:51:06.802Z,5.80
2022-09-11T17:53:41.534Z,5.77
2022-09-11T17:56:14.218Z,4.77
2022-09-11T17:58:42.556Z,4.80
2022-09-11T18:01:12.584Z,5.50
2022-09-11T18:03:41.865Z,5.37
2022-09-11T18:06:24.089Z,4.90
2022-09-11T18:08:51.194Z,4.83
2022-09-11T18:11:18.364Z,4.90
2022-09-11T18:13:45.199Z,5.00
2022-09-11T18:16:12.066Z,5.40
2022-09-11T18:18:39.546Z,4.87
2022-09-11T18:21:10.332Z,5.33
2022-09-11T18:23:42.607Z,4.83
2022-09-11T18:26:19.767Z,5.60
2022-09-11T18:28:47.165Z,5.13
2022-09-11T18:31:14.234Z,4.93
2022-09-11T18:33:41.080Z,5.17
2022-09-11T18:36:08.900Z,4.57
2022-09-11T18:38:37.285Z,4.87
2022-09-11T18:41:04.580Z,5.30
2022-09-11T18:43:31.385Z,5.17
2022-09-11T18:46:02.839Z,4.83
2022-09-11T18:48:29.795Z,4.13
2022-09-11T18:50:57.306Z,4.87
2022-09-11T18:53:25.501Z,4.60
2022-09-11T18:56:02.657Z,5.07
2022-09-11T18:58:35.053Z,5.00
2022-09-11T19:01:14.445Z,5.07
2022-09-11T19:03:42.293Z,4.67
2022-09-11T19:06:20.512Z,4.67
2022-09-11T19:08:48.812Z,5.30
2022-09-11T19:11:17.923Z,4.83
2022-09-11T19:13:45.671Z,4.67
2022-09-11T19:16:14.640Z,5.00
2022-09-11T19:18:42.102Z,4.47
2022-09-11T19:21:15.765Z,4.77
2022-09-11T19:23:44.998Z,4.53
2022-09-11T19:26:22.046Z,4.70
2022-09-11T19:28:50.731Z,4.43
2022-09-11T19:31:24.848Z,4.57
2022-09-11T19:33:53.386Z,4.67
2022-09-11T19:36:22.715Z,4.57
2022-09-11T19:38:51.749Z,4.33
2022-09-11T19:41:23.989Z,4.77
2022-09-11T19:43:50.966Z,4.87
2022-09-11T19:46:24.226Z,4.90
2022-09-11T19:48:56.706Z,4.67
2022-09-11T19:51:27.372Z,4.77
2022-09-11T19:54:00.412Z,4.80
2022-09-11T19:56:28.269Z,4.50
2022-09-11T19:58:55.379Z,5.17
2022-09-11T20:01:24.281Z,4.87
2022-09-11T20:03:55.628Z,5.00
2022-09-11T20:06:25.455Z,4.37
2022-09-11T20:09:08.014Z,4.83
2022-09-11T20:11:40.720Z,4.80
2022-09-11T20:14:07.432Z,4.60
2022-09-11T20:16:34.412Z,4.63
2022-09-11T20:19:06.136Z,4.63
2022-09-11T20:21:35.252Z,4.27
2022-09-11T20:24:02.494Z,4.87
2022-09-11T20:26:30.885Z,5.57
2022-09-11T20:29:04.076Z,4.47
2022-09-11T20:31:36.935Z,4.90
2022-09-11T20:34:07.681Z,4.90
2022-09-11T20:36:34.562Z,4.70
2022-09-11T20:39:01.238Z,4.60
2022-09-11T20:41:30.049Z,4.60
2022-09-11T20:43:59.950Z,5.57
2022-09-11T20:46:27.300Z,5.20
2022-09-11T20:48:54.265Z,5.13
2022-09-11T20:51:22.601Z,4.70
2022-09-11T20:53:49.710Z,4.73
2022-09-11T20:56:20.443Z,5.13
2022-09-11T20:58:47.393Z,5.03
2022-09-11T21:01:17.653Z,5.20
2022-09-11T21:03:46.566Z,5.00
2022-09-11T21:06:13.582Z,5.10
2022-09-11T21:08:42.174Z,4.57
2022-09-11T21:11:09.845Z,4.90
2022-09-11T21:13:38.994Z,4.67
2022-09-11T21:16:08.110Z,4.97
2022-09-11T21:18:35.181Z,5.23
2022-09-11T21:21:02.421Z,4.37
2022-09-11T21:23:29.281Z,5.20
2022-09-11T21:25:56.521Z,4.93
2022-09-11T21:28:23.418Z,5.20
2022-09-11T21:30:50.092Z,5.33
2022-09-11T21:33:16.986Z,5.40
2022-09-11T21:35:43.834Z,5.07
2022-09-11T21:38:10.591Z,5.00
2022-09-11T21:40:37.360Z,4.50
2022-09-11T21:43:04.468Z,4.83
2022-09-11T21:45:31.298Z,5.10
2022-09-11T21:47:58.011Z,5.40
2022-09-11T21:50:24.671Z,5.03
2022-09-11T21:52:52.000Z,4.77
2022-09-11T21:55:18.709Z,5.00
2022-09-11T21:57:45.378Z,5.40
2022-09-11T22:00:12.961Z,5.17
2022-09-11T22:02:40.586Z,5.33
2022-09-11T22:05:07.846Z,4.80
2022-09-11T22:07:34.650Z,5.10
2022-09-11T22:10:02.251Z,5.43
2022-09-11T22:12:29.094Z,4.83
2022-09-11T22:14:55.954Z,4.67
2022-09-11T22:17:22.902Z,5.43
2022-09-11T22:19:49.934Z,5.20
2022-09-11T22:22:17.017Z,4.60
2022-09-11T22:24:43.846Z,5.23
2022-09-11T22:27:11.493Z,5.60
2022-09-11T22:29:38.256Z,5.40
2022-09-11T22:32:05.992Z,5.33
2022-09-11T22:34:34.513Z,5.43
2022-09-11T22:37:02.196Z,4.63
2022-09-11T22:39:31.868Z,5.13
2022-09-11T22:42:01.834Z,4.70
2022-09-11T22:44:28.594Z,4.63
2022-09-11T22:46:55.475Z,4.93
2022-09-11T22:49:22.173Z,4.43
2022-09-11T22:51:49.597Z,5.83
2022-09-11T22:54:16.627Z,5.77
2022-09-11T22:56:43.702Z,4.87
2022-09-11T22:59:10.770Z,4.83
2022-09-11T23:01:38.294Z,5.57
2022-09-11T23:04:05.262Z,4.50
2022-09-11T23:06:50.642Z,5.43
2022-09-11T23:09:17.342Z,5.03
2022-09-11T23:11:46.210Z,5.27
2022-09-11T23:14:14.363Z,5.27
2022-09-11T23:16:42.163Z,5.07
2022-09-11T23:19:11.746Z,4.50
2022-09-11T23:21:38.650Z,4.47
2022-09-11T23:24:06.295Z,4.57
2022-09-11T23:26:33.617Z,4.47
2022-09-11T23:29:00.812Z,5.17
2022-09-11T23:31:33.011Z,4.57
2022-09-11T23:34:06.394Z,4.70
2022-09-11T23:36:35.238Z,4.90
2022-09-11T23:39:02.357Z,5.37
2022-09-11T23:41:29.236Z,4.80
2022-09-11T23:43:56.141Z,4.50
2022-09-11T23:46:23.091Z,4.47
2022-09-11T23:48:49.894Z,4.53
2022-09-11T23:51:16.990Z,5.10
2022-09-11T23:53:45.622Z,4.67
2022-09-11T23:56:14.558Z,4.77
2022-09-11T23:58:42.194Z,5.87
